sensor_id;sensor_type;location;lat;lon;timestamp;temperature;humidity
46492;DHT22;32206;51.446;6.792;2023-07-20T00:01:08;18.70;1.00
46492;DHT22;32206;51.446;6.792;2023-07-20T00:03:34;18.60;1.00
46492;DHT22;32206;51.446;6.792;2023-07-20T00:05:59;18.60;1.00
46492;DHT22;32206;51.446;6.792;2023-07-20T00:08:25;18.60;1.00
46492;DHT22;32206;51.446;6.792;2023-07-20T00:10:51;18.60;1.00
46492;DHT22;32206;51.446;6.792;2023-07-20T00:13:16;18.50;1.00
46492;DHT22;32206;51.446;6.792;2023-07-20T00:15:44;18.50;1.00
46492;DHT22;32206;51.446;6.792;2023-07-20T00:18:09;18.50;1.00
46492;DHT22;32206;51.446;6.792;2023-07-20T00:20:35;18.50;1.00
46492;DHT22;32206;51.446;6.792;2023-07-20T00:23:01;18.40;1.00
46492;DHT22;32206;51.446;6.792;2023-07-20T00:25:27;18.40;1.00
46492;DHT22;32206;51.446;6.792;2023-07-20T00:27:53;18.40;1.00
46492;DHT22;32206;51.446;6.792;2023-07-20T00:30:18;18.40;1.00
46492;DHT22;32206;51.446;6.792;2023-07-20T00:32:44;18.40;1.00
46492;DHT22;32206;51.446;6.792;2023-07-20T00:35:10;18.40;1.00
46492;DHT22;32206;51.446;6.792;2023-07-20T00:37:37;18.40;1.00
46492;DHT22;32206;51.446;6.792;2023-07-20T00:40:03;18.40;1.00
46492;DHT22;32206;51.446;6.792;2023-07-20T00:42:33;18.50;1.00
46492;DHT22;32206;51.446;6.792;2023-07-20T00:44:58;18.50;1.00
46492;DHT22;32206;51.446;6.792;2023-07-20T00:47:24;18.40;1.00
46492;DHT22;32206;51.446;6.792;2023-07-20T00:49:51;18.40;1.00
46492;DHT22;32206;51.446;6.792;2023-07-20T00:52:19;18.40;1.00
46492;DHT22;32206;51.446;6.792;2023-07-20T00:54:45;18.40;1.00
46492;DHT22;32206;51.446;6.792;2023-07-20T00:57:14;18.40;1.00
46492;DHT22;32206;51.446;6.792;2023-07-20T00:59:41;18.40;1.00
46492;DHT22;32206;51.446;6.792;2023-07-20T01:02:07;18.40;1.00
46492;DHT22;32206;51.446;6.792;2023-07-20T01:04:33;18.40;1.00
46492;DHT22;32206;51.446;6.792;2023-07-20T01:07:06;18.40;1.00
46492;DHT22;32206;51.446;6.792;2023-07-20T01:15:29;18.20;1.00
46492;DHT22;32206;51.446;6.792;2023-07-20T01:17:54;18.20;1.70
46492;DHT22;32206;51.446;6.792;2023-07-20T01:24:05;18.20;5.30
46492;DHT22;32206;51.446;6.792;2023-07-20T01:26:45;18.20;1.40
46492;DHT22;32206;51.446;6.792;2023-07-20T01:29:53;18.10;10.60
46492;DHT22;32206;51.446;6.792;2023-07-20T01:32:24;18.10;12.80
46492;DHT22;32206;51.446;6.792;2023-07-20T01:34:52;18.10;16.40
46492;DHT22;32206;51.446;6.792;2023-07-20T01:37:20;18.20;21.30
46492;DHT22;32206;51.446;6.792;2023-07-20T01:39:51;18.30;26.30
46492;DHT22;32206;51.446;6.792;2023-07-20T01:42:21;18.20;37.60
46492;DHT22;32206;51.446;6.792;2023-07-20T01:44:51;18.10;60.50
46492;DHT22;32206;51.446;6.792;2023-07-20T01:47:18;18.00;85.10
46492;DHT22;32206;51.446;6.792;2023-07-20T01:49:43;17.80;94.50
46492;DHT22;32206;51.446;6.792;2023-07-20T01:52:09;17.80;99.80
46492;DHT22;32206;51.446;6.792;2023-07-20T01:54:35;17.60;99.90
46492;DHT22;32206;51.446;6.792;2023-07-20T01:57:00;17.60;99.90
46492;DHT22;32206;51.446;6.792;2023-07-20T01:59:26;17.60;99.90
46492;DHT22;32206;51.446;6.792;2023-07-20T02:01:52;17.60;99.90
46492;DHT22;32206;51.446;6.792;2023-07-20T02:04:18;17.50;99.90
46492;DHT22;32206;51.446;6.792;2023-07-20T02:06:43;17.40;99.90
46492;DHT22;32206;51.446;6.792;2023-07-20T02:09:09;17.40;99.90
46492;DHT22;32206;51.446;6.792;2023-07-20T02:22:05;17.40;99.90
46492;DHT22;32206;51.446;6.792;2023-07-20T02:24:33;17.30;99.90
46492;DHT22;32206;51.446;6.792;2023-07-20T02:30:20;17.30;99.90
46492;DHT22;32206;51.446;6.792;2023-07-20T02:32:46;17.30;99.90
46492;DHT22;32206;51.446;6.792;2023-07-20T02:35:14;17.30;99.90
46492;DHT22;32206;51.446;6.792;2023-07-20T02:37:40;17.40;99.90
46492;DHT22;32206;51.446;6.792;2023-07-20T02:40:06;17.30;99.90
46492;DHT22;32206;51.446;6.792;2023-07-20T02:42:32;17.30;99.90
46492;DHT22;32206;51.446;6.792;2023-07-20T02:44:58;17.30;99.90
46492;DHT22;32206;51.446;6.792;2023-07-20T02:47:24;17.40;99.90
46492;DHT22;32206;51.446;6.792;2023-07-20T02:49:50;17.30;99.90
46492;DHT22;32206;51.446;6.792;2023-07-20T02:52:16;17.20;99.90
46492;DHT22;32206;51.446;6.792;2023-07-20T02:54:42;17.20;99.90
46492;DHT22;32206;51.446;6.792;2023-07-20T02:57:07;17.20;99.90
46492;DHT22;32206;51.446;6.792;2023-07-20T02:59:33;17.20;99.90
46492;DHT22;32206;51.446;6.792;2023-07-20T03:01:59;17.20;99.90
46492;DHT22;32206;51.446;6.792;2023-07-20T03:04:27;17.20;99.90
46492;DHT22;32206;51.446;6.792;2023-07-20T03:06:53;17.20;99.90
46492;DHT22;32206;51.446;6.792;2023-07-20T03:09:19;17.10;99.90
46492;DHT22;32206;51.446;6.792;2023-07-20T03:11:44;17.10;99.90
46492;DHT22;32206;51.446;6.792;2023-07-20T03:14:10;17.00;99.90
46492;DHT22;32206;51.446;6.792;2023-07-20T03:16:36;17.00;99.90
46492;DHT22;32206;51.446;6.792;2023-07-20T03:19:02;16.90;99.90
46492;DHT22;32206;51.446;6.792;2023-07-20T03:21:28;16.90;99.90
46492;DHT22;32206;51.446;6.792;2023-07-20T03:23:54;16.90;99.90
46492;DHT22;32206;51.446;6.792;2023-07-20T03:26:19;17.00;99.90
46492;DHT22;32206;51.446;6.792;2023-07-20T03:28:45;17.00;99.90
46492;DHT22;32206;51.446;6.792;2023-07-20T03:31:11;17.00;99.90
46492;DHT22;32206;51.446;6.792;2023-07-20T03:33:37;16.90;99.90
46492;DHT22;32206;51.446;6.792;2023-07-20T03:36:02;16.90;99.90
46492;DHT22;32206;51.446;6.792;2023-07-20T03:38:46;17.00;99.90
46492;DHT22;32206;51.446;6.792;2023-07-20T03:41:12;17.10;99.90
46492;DHT22;32206;51.446;6.792;2023-07-20T03:43:38;17.00;99.90
46492;DHT22;32206;51.446;6.792;2023-07-20T03:46:03;17.00;99.90
46492;DHT22;32206;51.446;6.792;2023-07-20T03:48:32;17.00;99.90
46492;DHT22;32206;51.446;6.792;2023-07-20T03:50:58;17.00;99.90
46492;DHT22;32206;51.446;6.792;2023-07-20T03:53:24;17.00;99.90
46492;DHT22;32206;51.446;6.792;2023-07-20T03:55:50;17.00;99.90
46492;DHT22;32206;51.446;6.792;2023-07-20T03:58:18;17.00;99.90
46492;DHT22;32206;51.446;6.792;2023-07-20T04:00:45;17.00;99.90
46492;DHT22;32206;51.446;6.792;2023-07-20T04:03:12;17.00;99.90
46492;DHT22;32206;51.446;6.792;2023-07-20T04:05:37;17.00;99.90
46492;DHT22;32206;51.446;6.792;2023-07-20T04:08:04;17.10;99.90
46492;DHT22;32206;51.446;6.792;2023-07-20T04:10:29;17.10;99.90
46492;DHT22;32206;51.446;6.792;2023-07-20T04:12:55;17.10;99.90
46492;DHT22;32206;51.446;6.792;2023-07-20T04:15:21;17.10;99.90
46492;DHT22;32206;51.446;6.792;2023-07-20T04:17:46;17.10;99.90
46492;DHT22;32206;51.446;6.792;2023-07-20T04:20:12;17.00;99.90
46492;DHT22;32206;51.446;6.792;2023-07-20T04:22:38;17.00;99.90
46492;DHT22;32206;51.446;6.792;2023-07-20T04:25:04;17.00;99.90
46492;DHT22;32206;51.446;6.792;2023-07-20T04:27:30;17.00;99.90
46492;DHT22;32206;51.446;6.792;2023-07-20T04:29:57;17.00;99.90
46492;DHT22;32206;51.446;6.792;2023-07-20T04:32:25;17.00;99.90
46492;DHT22;32206;51.446;6.792;2023-07-20T04:34:51;17.00;99.90
46492;DHT22;32206;51.446;6.792;2023-07-20T04:37:16;17.00;99.90
46492;DHT22;32206;51.446;6.792;2023-07-20T04:39:42;17.10;99.90
46492;DHT22;32206;51.446;6.792;2023-07-20T04:42:07;17.10;99.90
46492;DHT22;32206;51.446;6.792;2023-07-20T04:44:33;17.10;99.90
46492;DHT22;32206;51.446;6.792;2023-07-20T04:46:59;17.10;99.90
46492;DHT22;32206;51.446;6.792;2023-07-20T04:49:25;17.00;99.90
46492;DHT22;32206;51.446;6.792;2023-07-20T04:51:51;17.10;99.90
46492;DHT22;32206;51.446;6.792;2023-07-20T04:54:17;17.10;99.90
46492;DHT22;32206;51.446;6.792;2023-07-20T04:56:44;17.10;99.90
46492;DHT22;32206;51.446;6.792;2023-07-20T04:59:09;17.10;99.90
46492;DHT22;32206;51.446;6.792;2023-07-20T05:01:35;17.10;99.90
46492;DHT22;32206;51.446;6.792;2023-07-20T05:04:01;17.10;99.90
46492;DHT22;32206;51.446;6.792;2023-07-20T05:06:27;17.10;99.90
46492;DHT22;32206;51.446;6.792;2023-07-20T05:08:52;17.10;99.90
46492;DHT22;32206;51.446;6.792;2023-07-20T05:14:40;17.10;99.90
46492;DHT22;32206;51.446;6.792;2023-07-20T05:17:07;17.10;99.90
46492;DHT22;32206;51.446;6.792;2023-07-20T05:19:32;17.10;99.90
46492;DHT22;32206;51.446;6.792;2023-07-20T05:21:58;17.10;99.90
46492;DHT22;32206;51.446;6.792;2023-07-20T05:24:24;17.10;99.90
46492;DHT22;32206;51.446;6.792;2023-07-20T05:26:49;17.10;99.90
46492;DHT22;32206;51.446;6.792;2023-07-20T05:29:15;17.10;99.90
46492;DHT22;32206;51.446;6.792;2023-07-20T05:31:41;17.10;99.90
46492;DHT22;32206;51.446;6.792;2023-07-20T05:34:06;17.10;99.90
46492;DHT22;32206;51.446;6.792;2023-07-20T05:36:32;17.10;99.90
46492;DHT22;32206;51.446;6.792;2023-07-20T05:38:57;17.10;99.90
46492;DHT22;32206;51.446;6.792;2023-07-20T05:41:23;17.00;99.90
46492;DHT22;32206;51.446;6.792;2023-07-20T05:43:49;17.00;99.90
46492;DHT22;32206;51.446;6.792;2023-07-20T05:46:14;17.00;99.90
46492;DHT22;32206;51.446;6.792;2023-07-20T05:48:40;17.10;99.90
46492;DHT22;32206;51.446;6.792;2023-07-20T05:51:06;17.10;99.90
46492;DHT22;32206;51.446;6.792;2023-07-20T05:53:31;17.10;99.90
46492;DHT22;32206;51.446;6.792;2023-07-20T05:55:57;17.10;99.90
46492;DHT22;32206;51.446;6.792;2023-07-20T05:58:23;17.20;99.90
46492;DHT22;32206;51.446;6.792;2023-07-20T06:00:49;17.20;99.90
46492;DHT22;32206;51.446;6.792;2023-07-20T06:03:15;17.30;99.90
46492;DHT22;32206;51.446;6.792;2023-07-20T06:05:45;17.30;99.90
46492;DHT22;32206;51.446;6.792;2023-07-20T06:08:10;17.30;99.90
46492;DHT22;32206;51.446;6.792;2023-07-20T06:10:36;17.20;99.90
46492;DHT22;32206;51.446;6.792;2023-07-20T06:16:24;17.40;99.90
46492;DHT22;32206;51.446;6.792;2023-07-20T06:25:34;17.30;99.90
46492;DHT22;32206;51.446;6.792;2023-07-20T06:28:00;17.40;99.90
46492;DHT22;32206;51.446;6.792;2023-07-20T06:30:25;17.50;99.90
46492;DHT22;32206;51.446;6.792;2023-07-20T06:32:51;17.50;99.90
46492;DHT22;32206;51.446;6.792;2023-07-20T06:35:17;17.60;99.90
46492;DHT22;32206;51.446;6.792;2023-07-20T06:44:27;17.80;96.60
46492;DHT22;32206;51.446;6.792;2023-07-20T06:46:53;17.90;97.20
46492;DHT22;32206;51.446;6.792;2023-07-20T06:49:27;18.10;99.00
46492;DHT22;32206;51.446;6.792;2023-07-20T06:51:53;18.20;98.70
46492;DHT22;32206;51.446;6.792;2023-07-20T06:54:19;18.40;97.70
46492;DHT22;32206;51.446;6.792;2023-07-20T06:56:45;18.40;90.40
46492;DHT22;32206;51.446;6.792;2023-07-20T06:59:10;18.50;78.10
46492;DHT22;32206;51.446;6.792;2023-07-20T07:01:36;18.60;67.30
46492;DHT22;32206;51.446;6.792;2023-07-20T07:04:02;18.60;52.80
46492;DHT22;32206;51.446;6.792;2023-07-20T07:06:28;18.60;53.50
46492;DHT22;32206;51.446;6.792;2023-07-20T07:08:54;18.60;36.80
46492;DHT22;32206;51.446;6.792;2023-07-20T07:18:03;18.70;35.00
46492;DHT22;32206;51.446;6.792;2023-07-20T07:20:29;18.70;9.40
46492;DHT22;32206;51.446;6.792;2023-07-20T07:22:55;18.60;10.70
46492;DHT22;32206;51.446;6.792;2023-07-20T07:25:22;18.60;9.60
46492;DHT22;32206;51.446;6.792;2023-07-20T07:27:48;18.50;18.30
46492;DHT22;32206;51.446;6.792;2023-07-20T07:30:14;18.50;23.70
46492;DHT22;32206;51.446;6.792;2023-07-20T07:32:39;18.50;26.10
46492;DHT22;32206;51.446;6.792;2023-07-20T07:35:05;18.50;20.50
46492;DHT22;32206;51.446;6.792;2023-07-20T07:37:31;18.30;1.00
46492;DHT22;32206;51.446;6.792;2023-07-20T07:39:57;18.30;1.10
46492;DHT22;32206;51.446;6.792;2023-07-20T07:42:22;18.40;6.80
46492;DHT22;32206;51.446;6.792;2023-07-20T07:44:48;18.50;1.00
46492;DHT22;32206;51.446;6.792;2023-07-20T07:47:14;18.60;1.00
46492;DHT22;32206;51.446;6.792;2023-07-20T07:49:40;18.60;1.00
46492;DHT22;32206;51.446;6.792;2023-07-20T07:52:06;18.70;1.00
46492;DHT22;32206;51.446;6.792;2023-07-20T07:54:31;18.70;1.00
46492;DHT22;32206;51.446;6.792;2023-07-20T07:56:57;18.60;1.00
46492;DHT22;32206;51.446;6.792;2023-07-20T07:59:23;18.60;1.00
46492;DHT22;32206;51.446;6.792;2023-07-20T08:08:32;18.80;1.00
46492;DHT22;32206;51.446;6.792;2023-07-20T08:10:59;18.90;1.00
46492;DHT22;32206;51.446;6.792;2023-07-20T08:16:47;19.20;1.00
46492;DHT22;32206;51.446;6.792;2023-07-20T08:19:13;19.40;1.00
46492;DHT22;32206;51.446;6.792;2023-07-20T08:21:39;19.30;1.00
46492;DHT22;32206;51.446;6.792;2023-07-20T08:24:05;19.20;1.00
46492;DHT22;32206;51.446;6.792;2023-07-20T08:26:30;19.20;1.00
46492;DHT22;32206;51.446;6.792;2023-07-20T08:28:57;19.00;1.00
46492;DHT22;32206;51.446;6.792;2023-07-20T08:31:23;18.90;1.00
46492;DHT22;32206;51.446;6.792;2023-07-20T08:33:49;18.90;1.00
46492;DHT22;32206;51.446;6.792;2023-07-20T08:36:14;18.80;1.00
46492;DHT22;32206;51.446;6.792;2023-07-20T08:38:40;18.80;1.00
46492;DHT22;32206;51.446;6.792;2023-07-20T08:41:06;18.70;1.00
46492;DHT22;32206;51.446;6.792;2023-07-20T08:43:33;18.80;1.00
46492;DHT22;32206;51.446;6.792;2023-07-20T08:45:59;18.80;1.00
46492;DHT22;32206;51.446;6.792;2023-07-20T08:48:27;18.80;1.00
46492;DHT22;32206;51.446;6.792;2023-07-20T08:50:53;18.80;1.00
46492;DHT22;32206;51.446;6.792;2023-07-20T08:53:22;18.90;1.00
46492;DHT22;32206;51.446;6.792;2023-07-20T08:55:50;19.10;1.00
46492;DHT22;32206;51.446;6.792;2023-07-20T08:58:17;19.30;99.90
46492;DHT22;32206;51.446;6.792;2023-07-20T09:00:43;19.40;99.90
46492;DHT22;32206;51.446;6.792;2023-07-20T09:03:10;19.50;99.90
46492;DHT22;32206;51.446;6.792;2023-07-20T09:05:36;19.50;1.00
46492;DHT22;32206;51.446;6.792;2023-07-20T09:08:02;19.50;1.00
46492;DHT22;32206;51.446;6.792;2023-07-20T09:10:29;19.50;69.10
46492;DHT22;32206;51.446;6.792;2023-07-20T09:16:17;19.40;99.90
46492;DHT22;32206;51.446;6.792;2023-07-20T09:19:01;19.50;99.90
46492;DHT22;32206;51.446;6.792;2023-07-20T09:21:30;19.80;1.00
46492;DHT22;32206;51.446;6.792;2023-07-20T09:23:58;19.90;90.60
46492;DHT22;32206;51.446;6.792;2023-07-20T09:26:24;20.00;1.00
46492;DHT22;32206;51.446;6.792;2023-07-20T09:28:52;20.10;1.00
46492;DHT22;32206;51.446;6.792;2023-07-20T09:31:19;20.20;28.50
46492;DHT22;32206;51.446;6.792;2023-07-20T09:33:46;20.40;1.00
46492;DHT22;32206;51.446;6.792;2023-07-20T09:36:12;20.70;1.00
46492;DHT22;32206;51.446;6.792;2023-07-20T09:38:39;20.70;1.00
46492;DHT22;32206;51.446;6.792;2023-07-20T09:41:05;20.90;99.90
46492;DHT22;32206;51.446;6.792;2023-07-20T09:43:34;21.00;99.90
46492;DHT22;32206;51.446;6.792;2023-07-20T09:46:00;20.90;99.90
46492;DHT22;32206;51.446;6.792;2023-07-20T09:48:26;20.80;62.30
46492;DHT22;32206;51.446;6.792;2023-07-20T09:50:53;20.70;99.90
46492;DHT22;32206;51.446;6.792;2023-07-20T09:53:19;20.60;1.00
46492;DHT22;32206;51.446;6.792;2023-07-20T09:55:46;20.60;1.00
46492;DHT22;32206;51.446;6.792;2023-07-20T09:58:13;20.80;99.90
46492;DHT22;32206;51.446;6.792;2023-07-20T10:00:40;21.00;1.00
46492;DHT22;32206;51.446;6.792;2023-07-20T10:03:10;21.20;99.90
46492;DHT22;32206;51.446;6.792;2023-07-20T10:05:43;21.40;99.90
46492;DHT22;32206;51.446;6.792;2023-07-20T10:08:12;21.60;99.90
46492;DHT22;32206;51.446;6.792;2023-07-20T10:10:42;21.70;71.90
46492;DHT22;32206;51.446;6.792;2023-07-20T10:13:17;21.80;1.00
46492;DHT22;32206;51.446;6.792;2023-07-20T10:15:59;21.90;1.00
46492;DHT22;32206;51.446;6.792;2023-07-20T10:18:51;21.80;1.00
46492;DHT22;32206;51.446;6.792;2023-07-20T10:21:20;21.70;1.00
46492;DHT22;32206;51.446;6.792;2023-07-20T10:23:48;21.60;1.00
46492;DHT22;32206;51.446;6.792;2023-07-20T10:26:14;21.80;1.00
46492;DHT22;32206;51.446;6.792;2023-07-20T10:28:40;22.00;1.00
46492;DHT22;32206;51.446;6.792;2023-07-20T10:31:08;22.20;1.00
46492;DHT22;32206;51.446;6.792;2023-07-20T10:33:35;22.40;99.90
46492;DHT22;32206;51.446;6.792;2023-07-20T10:36:03;22.50;99.90
46492;DHT22;32206;51.446;6.792;2023-07-20T10:38:40;22.70;99.90
46492;DHT22;32206;51.446;6.792;2023-07-20T10:41:33;22.70;1.00
46492;DHT22;32206;51.446;6.792;2023-07-20T10:44:04;22.20;99.90
46492;DHT22;32206;51.446;6.792;2023-07-20T10:49:08;22.40;1.00
46492;DHT22;32206;51.446;6.792;2023-07-20T10:56:47;23.10;99.90
46492;DHT22;32206;51.446;6.792;2023-07-20T11:01:55;23.30;99.90
46492;DHT22;32206;51.446;6.792;2023-07-20T11:04:44;23.40;99.90
46492;DHT22;32206;51.446;6.792;2023-07-20T11:07:11;23.40;99.90
46492;DHT22;32206;51.446;6.792;2023-07-20T11:09:40;23.40;99.90
46492;DHT22;32206;51.446;6.792;2023-07-20T11:12:11;23.40;99.90
46492;DHT22;32206;51.446;6.792;2023-07-20T11:14:41;23.60;99.90
46492;DHT22;32206;51.446;6.792;2023-07-20T11:17:12;23.60;99.90
46492;DHT22;32206;51.446;6.792;2023-07-20T11:19:39;23.60;99.90
46492;DHT22;32206;51.446;6.792;2023-07-20T11:22:06;23.70;99.90
46492;DHT22;32206;51.446;6.792;2023-07-20T11:24:38;23.90;99.90
46492;DHT22;32206;51.446;6.792;2023-07-20T11:27:04;23.70;99.90
46492;DHT22;32206;51.446;6.792;2023-07-20T11:29:30;23.50;99.90
46492;DHT22;32206;51.446;6.792;2023-07-20T11:31:56;23.60;99.90
46492;DHT22;32206;51.446;6.792;2023-07-20T11:34:24;23.80;99.90
46492;DHT22;32206;51.446;6.792;2023-07-20T11:36:51;24.00;99.90
46492;DHT22;32206;51.446;6.792;2023-07-20T11:39:18;24.00;99.90
46492;DHT22;32206;51.446;6.792;2023-07-20T11:41:52;24.10;99.90
46492;DHT22;32206;51.446;6.792;2023-07-20T11:44:20;24.10;99.90
46492;DHT22;32206;51.446;6.792;2023-07-20T11:46:46;24.20;99.90
46492;DHT22;32206;51.446;6.792;2023-07-20T11:49:14;24.20;99.90
46492;DHT22;32206;51.446;6.792;2023-07-20T11:51:40;24.00;99.90
46492;DHT22;32206;51.446;6.792;2023-07-20T11:54:08;23.80;99.90
46492;DHT22;32206;51.446;6.792;2023-07-20T11:56:34;23.50;99.90
46492;DHT22;32206;51.446;6.792;2023-07-20T11:59:00;23.40;99.90
46492;DHT22;32206;51.446;6.792;2023-07-20T12:01:30;23.50;99.90
46492;DHT22;32206;51.446;6.792;2023-07-20T12:04:03;23.80;99.90
46492;DHT22;32206;51.446;6.792;2023-07-20T12:06:30;23.90;99.90
46492;DHT22;32206;51.446;6.792;2023-07-20T12:08:59;23.80;99.90
46492;DHT22;32206;51.446;6.792;2023-07-20T12:11:38;23.80;99.90
46492;DHT22;32206;51.446;6.792;2023-07-20T12:14:07;23.60;99.90
46492;DHT22;32206;51.446;6.792;2023-07-20T12:16:33;23.50;99.90
46492;DHT22;32206;51.446;6.792;2023-07-20T12:19:11;23.50;99.90
46492;DHT22;32206;51.446;6.792;2023-07-20T12:21:39;23.40;99.90
46492;DHT22;32206;51.446;6.792;2023-07-20T12:24:08;23.40;99.90
46492;DHT22;32206;51.446;6.792;2023-07-20T12:26:36;23.30;99.90
46492;DHT22;32206;51.446;6.792;2023-07-20T12:29:01;23.20;99.90
46492;DHT22;32206;51.446;6.792;2023-07-20T12:31:29;23.00;99.90
46492;DHT22;32206;51.446;6.792;2023-07-20T12:33:57;23.00;99.90
46492;DHT22;32206;51.446;6.792;2023-07-20T12:36:24;22.90;99.90
46492;DHT22;32206;51.446;6.792;2023-07-20T12:38:50;22.80;99.90
46492;DHT22;32206;51.446;6.792;2023-07-20T12:41:16;22.80;99.90
46492;DHT22;32206;51.446;6.792;2023-07-20T12:43:42;22.80;99.90
46492;DHT22;32206;51.446;6.792;2023-07-20T12:46:09;22.80;99.90
46492;DHT22;32206;51.446;6.792;2023-07-20T12:48:36;22.90;99.90
46492;DHT22;32206;51.446;6.792;2023-07-20T12:51:07;23.00;99.90
46492;DHT22;32206;51.446;6.792;2023-07-20T12:53:33;22.90;99.90
46492;DHT22;32206;51.446;6.792;2023-07-20T12:56:00;23.00;99.90
46492;DHT22;32206;51.446;6.792;2023-07-20T12:58:25;23.00;99.90
46492;DHT22;32206;51.446;6.792;2023-07-20T13:00:51;23.30;99.90
46492;DHT22;32206;51.446;6.792;2023-07-20T13:06:39;23.40;99.90
46492;DHT22;32206;51.446;6.792;2023-07-20T13:09:05;23.50;99.90
46492;DHT22;32206;51.446;6.792;2023-07-20T13:11:30;23.70;99.90
46492;DHT22;32206;51.446;6.792;2023-07-20T13:13:56;23.80;99.90
46492;DHT22;32206;51.446;6.792;2023-07-20T13:23:06;23.90;99.90
46492;DHT22;32206;51.446;6.792;2023-07-20T13:25:32;23.90;99.90
46492;DHT22;32206;51.446;6.792;2023-07-20T13:27:58;24.00;99.90
46492;DHT22;32206;51.446;6.792;2023-07-20T13:30:23;24.00;99.90
46492;DHT22;32206;51.446;6.792;2023-07-20T13:32:49;24.20;99.90
46492;DHT22;32206;51.446;6.792;2023-07-20T13:35:15;23.90;99.90
46492;DHT22;32206;51.446;6.792;2023-07-20T13:41:03;23.50;99.90
46492;DHT22;32206;51.446;6.792;2023-07-20T13:43:28;23.30;99.90
46492;DHT22;32206;51.446;6.792;2023-07-20T13:45:54;23.30;99.90
46492;DHT22;32206;51.446;6.792;2023-07-20T13:48:19;23.40;99.90
46492;DHT22;32206;51.446;6.792;2023-07-20T13:50:48;23.50;99.90
46492;DHT22;32206;51.446;6.792;2023-07-20T13:53:14;23.40;99.90
46492;DHT22;32206;51.446;6.792;2023-07-20T13:55:41;23.40;99.90
46492;DHT22;32206;51.446;6.792;2023-07-20T13:58:07;23.40;99.90
46492;DHT22;32206;51.446;6.792;2023-07-20T14:00:35;23.50;99.90
46492;DHT22;32206;51.446;6.792;2023-07-20T14:03:01;23.40;99.90
46492;DHT22;32206;51.446;6.792;2023-07-20T14:05:26;23.50;99.90
46492;DHT22;32206;51.446;6.792;2023-07-20T14:14:47;23.80;99.90
46492;DHT22;32206;51.446;6.792;2023-07-20T14:17:13;24.00;99.90
46492;DHT22;32206;51.446;6.792;2023-07-20T14:19:38;24.10;99.90
46492;DHT22;32206;51.446;6.792;2023-07-20T14:22:04;24.30;99.90
46492;DHT22;32206;51.446;6.792;2023-07-20T14:24:30;24.20;99.90
46492;DHT22;32206;51.446;6.792;2023-07-20T14:26:56;24.30;99.90
46492;DHT22;32206;51.446;6.792;2023-07-20T14:29:22;24.30;99.90
46492;DHT22;32206;51.446;6.792;2023-07-20T14:31:47;24.20;99.90
46492;DHT22;32206;51.446;6.792;2023-07-20T14:41:00;24.50;99.90
46492;DHT22;32206;51.446;6.792;2023-07-20T14:43:26;24.40;99.90
46492;DHT22;32206;51.446;6.792;2023-07-20T14:45:51;24.50;99.90
46492;DHT22;32206;51.446;6.792;2023-07-20T14:48:17;24.60;99.90
46492;DHT22;32206;51.446;6.792;2023-07-20T14:50:43;24.50;99.90
46492;DHT22;32206;51.446;6.792;2023-07-20T14:53:12;24.40;99.90
46492;DHT22;32206;51.446;6.792;2023-07-20T14:55:37;24.40;99.90
46492;DHT22;32206;51.446;6.792;2023-07-20T14:58:03;24.40;99.90
46492;DHT22;32206;51.446;6.792;2023-07-20T15:00:28;24.50;99.90
46492;DHT22;32206;51.446;6.792;2023-07-20T15:06:17;24.30;99.90
46492;DHT22;32206;51.446;6.792;2023-07-20T15:08:43;24.30;99.90
46492;DHT22;32206;51.446;6.792;2023-07-20T15:17:53;24.30;99.90
46492;DHT22;32206;51.446;6.792;2023-07-20T15:20:20;24.40;99.90
46492;DHT22;32206;51.446;6.792;2023-07-20T15:22:45;24.50;99.90
46492;DHT22;32206;51.446;6.792;2023-07-20T15:25:11;24.60;99.90
46492;DHT22;32206;51.446;6.792;2023-07-20T15:30:49;24.80;99.90
46492;DHT22;32206;51.446;6.792;2023-07-20T15:33:16;25.00;99.90
46492;DHT22;32206;51.446;6.792;2023-07-20T15:35:42;25.00;99.90
46492;DHT22;32206;51.446;6.792;2023-07-20T15:38:09;25.10;99.90
46492;DHT22;32206;51.446;6.792;2023-07-20T15:40:35;25.20;99.90
46492;DHT22;32206;51.446;6.792;2023-07-20T15:43:01;25.20;99.90
46492;DHT22;32206;51.446;6.792;2023-07-20T15:45:28;25.30;99.90
46492;DHT22;32206;51.446;6.792;2023-07-20T15:47:54;25.30;99.90
46492;DHT22;32206;51.446;6.792;2023-07-20T15:50:19;25.30;99.90
46492;DHT22;32206;51.446;6.792;2023-07-20T15:52:45;25.40;99.90
46492;DHT22;32206;51.446;6.792;2023-07-20T15:55:11;25.20;99.90
46492;DHT22;32206;51.446;6.792;2023-07-20T15:57:36;25.10;99.90
46492;DHT22;32206;51.446;6.792;2023-07-20T16:00:03;24.80;99.90
46492;DHT22;32206;51.446;6.792;2023-07-20T16:02:29;24.60;99.90
46492;DHT22;32206;51.446;6.792;2023-07-20T16:04:54;24.40;99.90
46492;DHT22;32206;51.446;6.792;2023-07-20T16:10:48;24.30;99.90
46492;DHT22;32206;51.446;6.792;2023-07-20T16:13:14;24.30;99.90
46492;DHT22;32206;51.446;6.792;2023-07-20T16:15:40;24.40;99.90
46492;DHT22;32206;51.446;6.792;2023-07-20T16:18:05;24.30;99.90
46492;DHT22;32206;51.446;6.792;2023-07-20T16:20:32;24.20;99.90
46492;DHT22;32206;51.446;6.792;2023-07-20T16:22:57;24.20;99.90
46492;DHT22;32206;51.446;6.792;2023-07-20T16:25:57;24.20;99.90
46492;DHT22;32206;51.446;6.792;2023-07-20T16:28:23;24.30;99.90
46492;DHT22;32206;51.446;6.792;2023-07-20T16:30:49;24.40;99.90
46492;DHT22;32206;51.446;6.792;2023-07-20T16:33:15;24.40;99.90
46492;DHT22;32206;51.446;6.792;2023-07-20T16:35:41;24.50;99.90
46492;DHT22;32206;51.446;6.792;2023-07-20T16:38:07;24.40;99.90
46492;DHT22;32206;51.446;6.792;2023-07-20T16:40:35;24.30;99.90
46492;DHT22;32206;51.446;6.792;2023-07-20T16:43:14;24.20;99.90
46492;DHT22;32206;51.446;6.792;2023-07-20T16:45:39;24.10;99.90
46492;DHT22;32206;51.446;6.792;2023-07-20T16:48:05;23.90;99.90
46492;DHT22;32206;51.446;6.792;2023-07-20T16:50:32;23.90;99.90
46492;DHT22;32206;51.446;6.792;2023-07-20T16:56:19;23.80;99.90
46492;DHT22;32206;51.446;6.792;2023-07-20T16:58:45;23.80;99.90
46492;DHT22;32206;51.446;6.792;2023-07-20T17:01:12;23.70;99.90
46492;DHT22;32206;51.446;6.792;2023-07-20T17:03:37;23.80;99.90
46492;DHT22;32206;51.446;6.792;2023-07-20T17:06:04;23.70;99.90
46492;DHT22;32206;51.446;6.792;2023-07-20T17:08:31;23.70;99.90
46492;DHT22;32206;51.446;6.792;2023-07-20T17:10:56;23.70;99.90
46492;DHT22;32206;51.446;6.792;2023-07-20T17:13:22;23.70;99.90
46492;DHT22;32206;51.446;6.792;2023-07-20T17:15:49;23.70;99.90
46492;DHT22;32206;51.446;6.792;2023-07-20T17:18:16;23.70;99.90
46492;DHT22;32206;51.446;6.792;2023-07-20T17:20:42;23.70;99.90
46492;DHT22;32206;51.446;6.792;2023-07-20T17:23:07;23.60;99.90
46492;DHT22;32206;51.446;6.792;2023-07-20T17:25:33;23.60;99.90
46492;DHT22;32206;51.446;6.792;2023-07-20T17:27:58;23.50;99.90
46492;DHT22;32206;51.446;6.792;2023-07-20T17:30:25;23.60;99.90
46492;DHT22;32206;51.446;6.792;2023-07-20T17:32:50;23.50;99.90
46492;DHT22;32206;51.446;6.792;2023-07-20T17:35:17;23.40;99.90